Time;durP1;ratioP1;P1;durP2;ratioP2;P2;SDS_P1;SDS_P2;PMS_P1;PMS_P2;Temp;Humidity;BMP_temperature;BMP_pressure;BME280_temperature;BME280_humidity;BME280_pressure;Samples;Min_cycle;Max_cycle;Signal;HPM_P1;HPM_P2
2021/04/17 00:01:49;;;;;;;3.70;3.42;;;;;;;7.06;27.83;101983.50;4975705;28;96838;-80
2021/04/17 00:04:16;;;;;;;4.47;3.45;;;;;;;7.08;27.89;101975.63;4991300;28;97482;-81
2021/04/17 00:06:44;;;;;;;5.13;3.45;;;;;;;7.10;27.58;101976.63;4983329;28;99846;-79
2021/04/17 00:09:12;;;;;;;4.40;3.75;;;;;;;7.08;27.97;101978.28;4986402;28;98494;-81
2021/04/17 00:11:42;;;;;;;4.18;3.65;;;;;;;7.02;28.17;101972.66;4980263;28;97828;-82
2021/04/17 00:14:12;;;;;;;3.90;3.45;;;;;;;7.03;27.96;101966.56;4963572;28;97267;-83
2021/04/17 00:16:39;;;;;;;3.63;3.30;;;;;;;7.01;28.08;101965.56;4980074;28;98308;-80
2021/04/17 00:19:06;;;;;;;4.03;3.80;;;;;;;7.02;28.28;101962.06;4956919;28;98080;-82
2021/04/17 00:21:33;;;;;;;3.60;3.30;;;;;;;7.01;28.17;101966.47;4979594;28;97838;-83
2021/04/17 00:24:01;;;;;;;4.18;3.75;;;;;;;6.97;28.20;101959.19;4963036;28;97981;-83
2021/04/17 00:26:30;;;;;;;5.82;4.43;;;;;;;6.94;28.08;101959.00;4975262;28;97438;-81
2021/04/17 00:28:58;;;;;;;3.83;3.53;;;;;;;6.94;28.03;101960.75;4965638;28;101828;-80
2021/04/17 00:31:26;;;;;;;4.28;3.33;;;;;;;6.97;28.43;101959.19;4962030;28;96835;-82
2021/04/17 00:33:54;;;;;;;4.97;3.38;;;;;;;6.98;28.26;101957.47;4962397;28;97986;-83
2021/04/17 00:36:21;;;;;;;4.00;3.70;;;;;;;6.97;28.21;101964.47;4980309;28;97620;-82
2021/04/17 00:38:48;;;;;;;3.97;3.38;;;;;;;6.96;28.10;101951.19;4976570;28;97423;-81
2021/04/17 00:41:15;;;;;;;3.67;3.47;;;;;;;6.97;28.38;101952.97;4974156;28;97525;-80
2021/04/17 00:43:42;;;;;;;6.95;4.05;;;;;;;6.96;28.34;101960.00;4975207;28;96935;-81
2021/04/17 00:46:12;;;;;;;3.88;3.15;;;;;;;6.98;28.44;101954.81;4976650;28;98504;-82
2021/04/17 00:48:39;;;;;;;4.07;3.78;;;;;;;6.96;28.51;101946.75;4976546;28;97957;-80
2021/04/17 00:51:07;;;;;;;4.10;3.65;;;;;;;6.97;28.23;101947.69;4979718;28;97555;-82
2021/04/17 00:53:34;;;;;;;5.15;3.55;;;;;;;7.00;28.50;101955.78;4961300;28;97486;-82
2021/04/17 00:56:04;;;;;;;4.57;3.78;;;;;;;7.01;28.22;101947.03;4962259;28;99801;-82
2021/04/17 00:58:31;;;;;;;3.53;3.22;;;;;;;7.01;28.29;101947.03;4967177;28;98042;-82
2021/04/17 01:00:58;;;;;;;5.80;4.40;;;;;;;7.03;28.06;101946.31;4989690;28;96659;-82
2021/04/17 01:03:31;;;;;;;5.65;3.80;;;;;;;7.08;28.30;101954.47;5003525;28;97014;-82
2021/04/17 01:06:03;;;;;;;6.20;4.00;;;;;;;7.12;28.38;101948.53;5007062;28;100108;-82
2021/04/17 01:08:35;;;;;;;4.00;3.70;;;;;;;7.15;28.44;101954.88;5007788;28;99501;-83
2021/04/17 01:11:06;;;;;;;6.20;3.55;;;;;;;7.19;28.32;101956.88;5000373;28;97722;-82
2021/04/17 01:13:35;;;;;;;4.07;3.78;;;;;;;7.24;28.45;101958.03;4984733;28;97167;-84
2021/04/17 01:16:04;;;;;;;6.90;4.30;;;;;;;7.23;27.92;101953.56;4972400;28;99129;-83
2021/04/17 01:18:32;;;;;;;4.22;3.80;;;;;;;7.26;28.09;101955.44;4978567;28;99327;-83
2021/04/17 01:21:01;;;;;;;4.30;3.92;;;;;;;7.29;28.17;101952.94;4964761;28;97119;-83
2021/04/17 01:23:33;;;;;;;4.78;3.72;;;;;;;7.31;28.09;101953.94;4977517;28;97068;-83
2021/04/17 01:26:03;;;;;;;5.20;3.95;;;;;;;7.31;28.24;101961.88;4983034;28;98017;-82
2021/04/17 01:28:32;;;;;;;3.78;3.47;;;;;;;7.32;28.21;101958.44;4957767;28;99627;-83
2021/04/17 01:31:01;;;;;;;3.85;3.55;;;;;;;7.34;28.13;101955.84;4979228;28;97319;-83
2021/04/17 01:33:32;;;;;;;3.60;3.40;;;;;;;7.38;27.92;101955.19;4959123;28;98970;-83
2021/04/17 01:36:01;;;;;;;5.85;3.53;;;;;;;7.38;28.04;101956.13;4975012;28;99145;-83
2021/04/17 01:38:30;;;;;;;4.60;4.20;;;;;;;7.40;28.32;101949.13;4976741;28;98067;-84
2021/04/17 01:41:01;;;;;;;5.55;3.22;;;;;;;7.38;28.57;101942.88;4977297;28;97267;-83
2021/04/17 01:43:30;;;;;;;4.85;4.45;;;;;;;7.41;28.09;101943.06;4963095;28;97131;-84
2021/04/17 01:46:04;;;;;;;6.32;3.40;;;;;;;7.38;28.30;101929.63;4976383;28;98159;-83
2021/04/17 01:48:32;;;;;;;5.63;3.85;;;;;;;7.39;28.28;101927.88;4975822;28;98565;-82
2021/04/17 01:51:01;;;;;;;4.55;3.90;;;;;;;7.39;28.45;101928.78;4991511;28;97071;-83
2021/04/17 01:53:30;;;;;;;5.90;3.90;;;;;;;7.40;28.43;101940.31;4974547;28;97887;-84
2021/04/17 01:55:58;;;;;;;4.47;3.50;;;;;;;7.36;28.54;101930.38;4975767;28;98249;-83
2021/04/17 01:58:30;;;;;;;6.95;3.63;;;;;;;7.35;28.41;101925.88;4982361;28;98243;-83
2021/04/17 02:00:59;;;;;;;5.97;3.83;;;;;;;7.33;28.15;101917.88;4978295;28;97389;-84
2021/04/17 02:03:27;;;;;;;3.83;3.53;;;;;;;7.26;28.28;101915.72;4987269;28;96009;-83
2021/04/17 02:05:55;;;;;;;5.78;4.03;;;;;;;7.18;28.56;101917.09;4965148;28;99731;-83
2021/04/17 02:08:22;;;;;;;5.43;3.83;;;;;;;7.12;28.86;101911.47;4986447;28;99696;-84
2021/04/17 02:10:50;;;;;;;3.88;3.58;;;;;;;7.07;28.56;101919.13;4978725;28;97823;-83
2021/04/17 02:13:18;;;;;;;3.88;3.30;;;;;;;6.99;28.79;101922.22;4975151;28;97406;-84
2021/04/17 02:15:47;;;;;;;7.97;4.22;;;;;;;6.90;29.17;101914.72;4974887;28;98626;-83
2021/04/17 02:18:20;;;;;;;8.60;3.67;;;;;;;6.88;29.28;101920.72;4976179;28;98575;-83
2021/04/17 02:20:52;;;;;;;5.15;3.80;;;;;;;6.80;29.24;101920.31;4975464;28;97115;-82
2021/04/17 02:23:19;;;;;;;6.82;4.55;;;;;;;6.75;29.39;101916.50;4978136;28;97683;-82
2021/04/17 02:25:46;;;;;;;3.72;3.42;;;;;;;6.68;29.54;101917.00;4984016;28;99082;-83
2021/04/17 02:28:14;;;;;;;5.50;4.70;;;;;;;6.63;29.67;101917.59;4979095;28;98178;-83
2021/04/17 02:30:41;;;;;;;3.80;3.50;;;;;;;6.61;29.39;101919.22;4976935;28;96965;-83
2021/04/17 02:33:09;;;;;;;4.18;3.88;;;;;;;6.62;29.34;101921.03;4979789;28;97516;-83
2021/04/17 02:35:36;;;;;;;5.50;4.00;;;;;;;6.60;29.38;101917.38;4961426;28;101429;-83
2021/04/17 02:38:06;;;;;;;4.50;3.90;;;;;;;6.55;29.26;101905.66;4959933;28;100891;-83
2021/04/17 02:40:33;;;;;;;4.25;3.75;;;;;;;6.53;29.58;101900.28;4976567;28;97002;-83
2021/04/17 02:42:59;;;;;;;4.75;4.20;;;;;;;6.49;29.70;101903.59;4985646;28;96896;-83
2021/04/17 02:45:27;;;;;;;5.25;4.20;;;;;;;6.39;29.57;101895.06;4956389;28;99336;-83
2021/04/17 02:47:54;;;;;;;3.97;3.78;;;;;;;6.29;29.48;101900.69;4977199;28;99901;-83
2021/04/17 02:50:23;;;;;;;5.53;3.85;;;;;;;6.21;30.03;101892.28;4977601;28;96999;-84
2021/04/17 02:52:50;;;;;;;4.18;3.70;;;;;;;6.20;29.82;101899.28;4977439;28;97117;-84
2021/04/17 02:55:18;;;;;;;4.22;3.50;;;;;;;6.15;29.81;101899.84;4961301;28;99218;-84
2021/04/17 02:57:45;;;;;;;4.53;4.13;;;;;;;6.12;29.85;101900.56;4977694;28;99837;-83
2021/04/17 03:00:16;;;;;;;3.78;3.35;;;;;;;6.16;30.00;101894.66;4961674;28;97230;-85
2021/04/17 03:02:43;;;;;;;4.57;4.10;;;;;;;6.16;29.93;101896.38;4969721;28;96738;-84
2021/04/17 03:05:12;;;;;;;5.25;4.15;;;;;;;6.22;29.61;101902.00;4972441;28;99365;-83
2021/04/17 03:07:40;;;;;;;4.50;4.18;;;;;;;6.23;30.03;101904.75;4997942;28;100198;-82
2021/04/17 03:10:08;;;;;;;6.57;4.43;;;;;;;6.27;29.66;101903.22;4984096;28;97822;-83
2021/04/17 03:12:36;;;;;;;4.43;4.00;;;;;;;6.25;29.70;101897.81;4981971;28;98048;-83
2021/04/17 03:15:05;;;;;;;4.65;4.00;;;;;;;6.25;29.91;101903.09;4982513;28;98942;-83
2021/04/17 03:17:32;;;;;;;6.82;3.92;;;;;;;6.29;29.47;101898.91;4962619;28;99833;-83
2021/04/17 03:19:59;;;;;;;4.72;4.18;;;;;;;6.36;29.54;101900.19;4983794;28;97571;-82
2021/04/17 03:22:47;;;;;;;5.35;4.25;;;;;;;6.40;29.66;101903.06;4976621;28;97436;-83
2021/04/17 03:25:14;;;;;;;4.55;4.10;;;;;;;6.44;29.57;101904.16;4979191;28;96918;-81
2021/04/17 03:27:42;;;;;;;5.35;4.70;;;;;;;6.49;29.54;101898.28;4973632;28;99299;-83
2021/04/17 03:30:12;;;;;;;4.32;4.03;;;;;;;6.49;29.53;101897.41;4977595;28;97460;-83
2021/04/17 03:32:39;;;;;;;4.65;4.20;;;;;;;6.48;29.84;101895.56;4985832;28;97229;-83
2021/04/17 03:35:08;;;;;;;4.70;4.25;;;;;;;6.39;30.04;101890.69;5003879;28;99046;-83
2021/04/17 03:37:36;;;;;;;4.30;3.90;;;;;;;6.37;29.65;101897.63;4962130;28;99229;-83
2021/04/17 03:40:06;;;;;;;4.28;3.85;;;;;;;6.34;29.95;101893.91;4961486;28;96948;-83
2021/04/17 03:42:33;;;;;;;7.57;4.03;;;;;;;6.31;29.93;101886.69;4983859;28;96912;-82
2021/04/17 03:45:02;;;;;;;6.93;3.85;;;;;;;6.29;29.69;101887.47;4976576;28;98686;-82
2021/04/17 03:47:29;;;;;;;5.95;4.50;;;;;;;6.31;29.84;101885.78;4980119;28;97793;-82
2021/04/17 03:49:56;;;;;;;4.35;4.00;;;;;;;6.34;29.90;101891.25;4962304;28;97248;-83
2021/04/17 03:52:23;;;;;;;7.65;4.20;;;;;;;6.33;29.70;101898.28;4977644;28;97195;-83
2021/04/17 03:54:50;;;;;;;4.45;4.03;;;;;;;6.35;29.71;101890.44;4975792;28;99436;-83
2021/04/17 03:57:19;;;;;;;5.70;4.13;;;;;;;6.36;30.13;101892.25;4978527;28;99165;-83
2021/04/17 03:59:46;;;;;;;6.25;4.13;;;;;;;6.35;29.81;101893.06;4972735;28;97879;-83
2021/04/17 04:02:14;;;;;;;4.28;3.92;;;;;;;6.31;30.10;101897.28;4974740;28;97350;-84
2021/04/17 04:04:41;;;;;;;5.95;3.80;;;;;;;6.28;30.14;101896.19;4977252;28;99345;-82
2021/04/17 04:07:08;;;;;;;4.20;3.80;;;;;;;6.26;29.93;101898.72;4958432;28;99803;-84
2021/04/17 04:09:35;;;;;;;4.30;3.97;;;;;;;6.30;30.35;101905.13;4961716;28;98456;-83
2021/04/17 04:12:06;;;;;;;5.35;3.83;;;;;;;6.28;30.14;101901.47;4966245;28;97617;-84
2021/04/17 04:14:33;;;;;;;4.97;4.43;;;;;;;6.23;30.12;101901.22;4974833;28;100708;-84
2021/04/17 04:17:02;;;;;;;4.55;4.15;;;;;;;6.24;30.19;101905.66;4978901;28;98807;-82
2021/04/17 04:19:29;;;;;;;4.22;3.90;;;;;;;6.23;30.57;101909.13;4962567;28;97722;-83
2021/04/17 04:21:56;;;;;;;5.60;4.25;;;;;;;6.19;30.40;101902.78;4972548;28;98101;-83
2021/04/17 04:24:23;;;;;;;4.97;3.70;;;;;;;6.19;30.48;101907.13;4974885;28;98227;-84
2021/04/17 04:26:53;;;;;;;4.68;4.28;;;;;;;6.14;30.64;101904.22;4973181;28;97561;-84
2021/04/17 04:29:21;;;;;;;4.60;4.18;;;;;;;6.12;30.56;101897.94;4976970;28;97240;-82
2021/04/17 04:31:49;;;;;;;5.25;4.85;;;;;;;6.08;30.72;101895.97;4956310;28;97024;-83
2021/04/17 04:34:16;;;;;;;5.68;5.18;;;;;;;6.05;30.70;101897.53;4974828;28;98478;-83
2021/04/17 04:36:44;;;;;;;5.53;4.60;;;;;;;6.02;31.09;101894.69;4957517;28;98036;-82
2021/04/17 04:39:11;;;;;;;8.27;4.80;;;;;;;6.01;31.17;101885.84;4981855;28;97759;-83
2021/04/17 04:41:38;;;;;;;6.50;5.13;;;;;;;5.98;31.16;101883.03;4973527;28;96942;-83
2021/04/17 04:44:05;;;;;;;5.90;4.38;;;;;;;5.97;31.51;101888.25;4975902;28;99473;-83
2021/04/17 04:46:33;;;;;;;4.38;3.97;;;;;;;5.90;31.38;101875.50;4979312;28;99625;-86
2021/04/17 04:49:01;;;;;;;4.38;4.03;;;;;;;5.84;31.25;101875.16;4962985;28;96677;-84
2021/04/17 04:51:29;;;;;;;4.68;4.15;;;;;;;5.77;31.90;101879.19;4978244;28;97421;-82
2021/04/17 04:53:59;;;;;;;4.88;4.38;;;;;;;5.73;31.87;101876.25;4975600;28;100313;-84
2021/04/17 04:56:27;;;;;;;5.63;4.50;;;;;;;5.69;31.96;101869.91;4971111;28;99436;-84
2021/04/17 04:58:54;;;;;;;5.32;4.35;;;;;;;5.69;31.91;101869.91;4999160;28;97460;-84
2021/04/17 05:01:21;;;;;;;6.28;4.57;;;;;;;5.68;32.01;101862.81;4998746;28;96407;-83
2021/04/17 05:03:50;;;;;;;4.55;3.95;;;;;;;5.69;31.81;101863.69;4991891;28;99190;-81
2021/04/17 05:06:18;;;;;;;5.80;5.20;;;;;;;5.70;31.80;101866.44;4992132;28;98034;-83
2021/04/17 05:08:46;;;;;;;4.40;4.00;;;;;;;5.75;32.04;101866.69;4987620;28;96705;-83
2021/04/17 05:11:13;;;;;;;4.07;3.72;;;;;;;5.76;32.00;101864.13;4981925;28;96840;-82
2021/04/17 05:13:40;;;;;;;4.15;3.85;;;;;;;5.81;32.18;101867.94;4999536;28;97545;-83
2021/04/17 05:16:07;;;;;;;5.43;4.13;;;;;;;5.81;32.20;101860.03;4979852;28;100008;-82
2021/04/17 05:18:35;;;;;;;6.63;4.28;;;;;;;5.85;32.35;101867.31;4993311;28;97218;-83
2021/04/17 05:21:03;;;;;;;5.05;3.90;;;;;;;5.86;32.22;101863.88;4990711;28;95987;-83
2021/04/17 05:23:31;;;;;;;4.70;4.30;;;;;;;5.89;32.28;101857.81;4987610;28;99839;-83
2021/04/17 05:25:58;;;;;;;4.85;4.50;;;;;;;5.91;32.28;101857.09;4986295;28;99458;-82
2021/04/17 05:28:25;;;;;;;4.50;4.00;;;;;;;5.93;32.39;101866.03;4970326;28;97255;-84
2021/04/17 05:30:53;;;;;;;9.15;4.40;;;;;;;5.97;32.44;101856.53;4986324;28;97680;-84
2021/04/17 05:33:20;;;;;;;4.60;4.18;;;;;;;5.91;32.39;101851.81;4983229;28;98351;-85
2021/04/17 05:35:47;;;;;;;8.23;4.22;;;;;;;5.95;32.51;101860.81;4986388;28;101048;-83
2021/04/17 05:38:14;;;;;;;4.85;4.25;;;;;;;5.91;32.35;101856.19;4971614;28;97685;-83
2021/04/17 05:40:42;;;;;;;4.50;3.90;;;;;;;5.94;32.26;101859.03;4980310;28;97038;-84
2021/04/17 05:43:09;;;;;;;11.48;5.97;;;;;;;5.94;32.46;101856.38;4981284;28;98092;-84
2021/04/17 05:45:39;;;;;;;5.05;4.63;;;;;;;5.99;32.65;101849.63;4978599;28;97903;-84
2021/04/17 05:48:07;;;;;;;4.13;3.83;;;;;;;6.01;32.55;101847.97;4987526;28;97521;-84
2021/04/17 05:50:35;;;;;;;4.63;4.20;;;;;;;6.02;32.37;101850.69;4981886;28;97417;-88
2021/04/17 05:53:02;;;;;;;5.53;4.00;;;;;;;6.01;32.70;101850.63;4962543;28;99179;-84
2021/04/17 05:55:29;;;;;;;4.68;3.80;;;;;;;6.02;32.73;101842.75;4981712;28;100640;-83
2021/04/17 05:57:57;;;;;;;4.80;4.32;;;;;;;6.05;32.66;101840.28;4985774;28;96988;-83
2021/04/17 06:00:26;;;;;;;4.53;4.13;;;;;;;6.14;32.64;101846.09;4976129;28;97071;-84
2021/04/17 06:02:53;;;;;;;5.00;4.10;;;;;;;6.19;32.56;101839.34;4989341;28;100728;-84
2021/04/17 06:05:21;;;;;;;3.83;3.53;;;;;;;6.24;32.32;101835.22;4995491;28;99971;-84
2021/04/17 06:07:49;;;;;;;3.95;3.70;;;;;;;6.23;32.32;101838.66;4979339;28;96806;-84
2021/04/17 06:10:16;;;;;;;4.40;4.00;;;;;;;6.29;32.17;101834.59;4983292;28;97208;-83
2021/04/17 06:12:43;;;;;;;4.20;3.83;;;;;;;6.32;32.23;101832.13;4978907;28;100573;-84
2021/04/17 06:15:13;;;;;;;4.13;3.78;;;;;;;6.36;32.59;101831.47;5004073;28;97946;-84
2021/04/17 06:17:41;;;;;;;5.68;5.38;;;;;;;6.36;32.17;101831.47;4968686;28;96858;-84
2021/04/17 06:20:12;;;;;;;4.25;3.83;;;;;;;6.40;32.44;101825.53;4983404;28;97167;-84
2021/04/17 06:22:39;;;;;;;3.55;3.13;;;;;;;6.48;32.01;101816.25;4975715;28;99494;-84
2021/04/17 06:25:12;;;;;;;3.60;3.40;;;;;;;6.47;32.18;101814.44;4981282;28;99096;-84
2021/04/17 06:27:39;;;;;;;3.60;3.38;;;;;;;6.51;31.96;101816.41;4986038;28;97543;-84
2021/04/17 06:30:08;;;;;;;3.63;3.40;;;;;;;6.48;32.34;101811.88;4979890;28;96768;-84
2021/04/17 06:32:36;;;;;;;3.60;3.40;;;;;;;6.51;32.35;101816.41;4988913;28;99665;-84
2021/04/17 06:35:04;;;;;;;4.30;3.00;;;;;;;6.52;32.09;101808.59;4963614;28;99579;-84
2021/04/17 06:37:31;;;;;;;3.90;3.60;;;;;;;6.53;32.13;101806.81;4979537;28;96830;-85
2021/04/17 06:39:58;;;;;;;5.20;3.72;;;;;;;6.59;31.98;101808.06;4979883;28;97515;-84
2021/04/17 06:42:27;;;;;;;5.35;4.00;;;;;;;6.65;31.89;101813.66;4978853;28;99448;-83
2021/04/17 06:44:54;;;;;;;3.80;3.28;;;;;;;6.66;31.92;101801.38;5002360;28;100411;-83
2021/04/17 06:47:22;;;;;;;6.28;3.70;;;;;;;6.68;31.98;101800.63;4976171;28;96901;-84
2021/04/17 06:49:51;;;;;;;4.63;3.50;;;;;;;6.70;32.00;101792.78;4977380;28;97775;-83
2021/04/17 06:52:18;;;;;;;3.80;3.42;;;;;;;6.63;32.09;101793.28;4975870;28;97540;-83
2021/04/17 06:54:46;;;;;;;7.53;3.28;;;;;;;6.64;32.03;101795.06;4967200;28;99605;-84
2021/04/17 06:57:14;;;;;;;3.67;3.40;;;;;;;6.58;32.15;101797.44;4980711;28;97446;-83
2021/04/17 06:59:42;;;;;;;7.03;4.65;;;;;;;6.62;32.19;101783.50;4973751;28;97640;-83
2021/04/17 07:02:13;;;;;;;4.40;4.00;;;;;;;6.63;32.14;101782.69;4976366;28;98226;-83
2021/04/17 07:04:41;;;;;;;4.55;3.90;;;;;;;6.65;32.04;101787.22;4981625;28;99292;-83
2021/04/17 07:07:09;;;;;;;4.38;4.10;;;;;;;6.65;31.99;101770.47;4976656;28;97933;-83
2021/04/17 07:09:37;;;;;;;4.15;3.80;;;;;;;6.63;32.28;101780.06;4957871;28;97941;-83
2021/04/17 07:12:05;;;;;;;4.97;4.53;;;;;;;6.69;32.12;101785.69;4965196;28;99248;-84
2021/04/17 07:14:43;;;;;;;4.90;4.43;;;;;;;6.77;32.27;101779.03;4973730;28;99485;-84
2021/04/17 07:17:10;;;;;;;8.32;4.70;;;;;;;6.78;31.97;101778.22;4978830;28;97236;-83
2021/04/17 07:19:51;;;;;;;4.43;4.03;;;;;;;6.81;32.17;101788.94;4971846;28;97910;-83
2021/04/17 07:22:22;;;;;;;6.10;4.40;;;;;;;6.84;32.28;101792.66;4975952;28;99244;-85
2021/04/17 07:24:50;;;;;;;8.02;4.55;;;;;;;6.83;31.99;101789.94;4993160;28;97997;-84
2021/04/17 07:27:37;;;;;;;8.50;6.30;;;;;;;6.88;32.35;101794.66;4978797;28;97982;-83
2021/04/17 07:30:32;;;;;;;7.75;4.80;;;;;;;7.02;32.26;101798.00;4984908;28;97285;-84
2021/04/17 07:33:06;;;;;;;5.35;4.60;;;;;;;7.08;31.60;101801.88;4957828;28;99809;-86
2021/04/17 07:35:35;;;;;;;6.57;4.65;;;;;;;7.16;31.30;101799.63;4976838;28;98779;-84
2021/04/17 07:38:15;;;;;;;11.43;7.03;;;;;;;7.23;31.72;101802.66;4976501;28;97187;-84
2021/04/17 07:40:45;;;;;;;6.40;4.85;;;;;;;7.34;31.62;101797.91;4974908;28;97751;-86
2021/04/17 07:43:17;;;;;;;5.78;4.25;;;;;;;7.45;31.68;101802.03;4953338;28;99341;-84
2021/04/17 07:45:45;;;;;;;5.28;4.38;;;;;;;7.50;31.29;101796.94;4958810;28;99204;-84
2021/04/17 07:48:21;;;;;;;6.72;4.90;;;;;;;7.55;31.50;101799.00;4976846;28;97479;-83
2021/04/17 07:50:49;;;;;;;5.90;4.47;;;;;;;7.56;31.10;101803.47;4972476;28;96873;-83
2021/04/17 07:53:31;;;;;;;7.35;4.75;;;;;;;7.59;31.57;101805.34;4972979;28;99632;-83
2021/04/17 07:56:24;;;;;;;5.30;4.07;;;;;;;7.61;31.51;101807.25;4969148;28;99627;-83
2021/04/17 07:58:52;;;;;;;6.13;4.22;;;;;;;7.60;30.94;101813.38;4953812;28;98155;-84
2021/04/17 08:01:20;;;;;;;11.00;6.00;;;;;;;7.62;31.79;101819.66;4968701;28;97181;-83
2021/04/17 08:03:48;;;;;;;7.65;4.85;;;;;;;7.68;31.54;101808.44;4966709;28;98307;-83
2021/04/17 08:06:16;;;;;;;5.93;5.25;;;;;;;7.74;31.60;101809.69;4961263;28;99731;-84
2021/04/17 08:08:45;;;;;;;6.32;5.07;;;;;;;7.76;31.34;101802.72;4970387;28;97676;-85
2021/04/17 08:11:12;;;;;;;9.40;5.45;;;;;;;7.72;31.43;101803.38;4972368;28;97183;-84
2021/04/17 08:13:43;;;;;;;5.97;5.50;;;;;;;7.75;31.28;101807.91;4976166;28;98991;-84
2021/04/17 08:16:12;;;;;;;5.32;4.55;;;;;;;7.81;31.24;101798.53;4952751;28;100085;-85
2021/04/17 08:18:41;;;;;;;6.72;5.10;;;;;;;7.88;31.13;101803.28;4975681;28;99073;-88
2021/04/17 08:21:13;;;;;;;4.85;4.45;;;;;;;7.97;31.04;101803.72;4965198;28;96856;-87
2021/04/17 08:23:52;;;;;;;5.20;4.80;;;;;;;8.02;31.25;101799.56;4961634;28;99883;-89
2021/04/17 08:26:21;;;;;;;6.80;5.55;;;;;;;8.02;30.93;101806.63;4966512;28;98876;-85
2021/04/17 08:29:00;;;;;;;8.63;5.07;;;;;;;8.11;31.38;101801.75;4976698;28;97273;-88
2021/04/17 08:31:35;;;;;;;6.72;4.57;;;;;;;8.14;30.95;101794.84;4980696;28;96580;-88
2021/04/17 08:34:19;;;;;;;8.98;6.30;;;;;;;8.23;30.85;101797.94;4979389;28;99045;-85
2021/04/17 08:37:13;;;;;;;9.30;5.78;;;;;;;8.29;30.75;101794.66;4996287;28;99277;-85
2021/04/17 08:39:54;;;;;;;6.18;4.65;;;;;;;8.34;30.78;101800.16;4967287;28;97518;-84
2021/04/17 08:42:44;;;;;;;5.03;4.47;;;;;;;8.27;30.74;101795.41;4979174;28;97202;-84
2021/04/17 08:45:18;;;;;;;4.65;3.92;;;;;;;8.29;30.71;101791.09;4961475;28;99652;-86
2021/04/17 08:47:52;;;;;;;6.90;4.78;;;;;;;8.30;30.71;101800.84;4981095;28;99430;-87
2021/04/17 08:50:34;;;;;;;5.13;4.60;;;;;;;8.38;30.83;101784.47;4986892;28;98519;-86
2021/04/17 08:53:10;;;;;;;10.07;6.82;;;;;;;8.46;30.78;101787.47;4973913;28;97338;-86
2021/04/17 08:56:05;;;;;;;8.13;5.95;;;;;;;8.44;30.88;101789.16;4994873;28;98203;-87
2021/04/17 08:58:37;;;;;;;8.45;4.78;;;;;;;8.57;30.90;101784.47;4996556;28;99256;-84
2021/04/17 09:01:26;;;;;;;4.18;3.88;;;;;;;8.66;30.86;101786.66;4990889;28;97100;-88
2021/04/17 09:04:09;;;;;;;5.28;3.83;;;;;;;8.73;30.58;101779.00;5000114;28;97076;-87
2021/04/17 09:07:44;;;;;;;6.35;4.63;;;;;;;8.76;30.31;101778.25;4992745;28;98620;-86
2021/04/17 09:10:38;;;;;;;6.93;4.25;;;;;;;8.74;30.37;101775.53;4993087;28;98496;-87
2021/04/17 09:16:42;;;;;;;4.47;3.88;;;;;;;8.94;30.06;101781.72;4937679;28;97443;-83
2021/04/17 09:19:12;;;;;;;7.30;5.00;;;;;;;8.99;29.95;101781.06;4978921;28;99205;-84
2021/04/17 09:21:43;;;;;;;5.18;4.35;;;;;;;9.01;29.98;101783.78;4979609;28;98141;-84
2021/04/17 09:24:26;;;;;;;4.38;3.97;;;;;;;9.07;29.56;101786.72;4960084;28;97340;-85
2021/04/17 09:26:54;;;;;;;4.30;4.00;;;;;;;9.08;29.86;101796.47;4986547;28;96825;-83
2021/04/17 09:29:26;;;;;;;4.55;4.10;;;;;;;9.13;29.74;101779.91;4963826;28;99253;-84
2021/04/17 09:31:58;;;;;;;7.55;4.45;;;;;;;9.16;30.00;101787.09;4961390;28;100247;-84
2021/04/17 09:34:27;;;;;;;5.32;4.15;;;;;;;9.21;29.88;101780.22;4979512;28;97298;-85
2021/04/17 09:37:09;;;;;;;5.75;4.05;;;;;;;9.20;29.55;101781.09;4968266;28;97139;-85
2021/04/17 09:39:44;;;;;;;4.68;3.75;;;;;;;9.17;29.62;101778.28;4995817;28;97982;-85
2021/04/17 09:42:14;;;;;;;3.88;3.58;;;;;;;9.08;29.86;101773.50;4977587;28;99328;-84
2021/04/17 09:44:45;;;;;;;16.63;11.10;;;;;;;9.10;29.83;101784.19;4951749;28;97853;-86
2021/04/17 09:47:16;;;;;;;18.73;11.27;;;;;;;9.14;29.83;101778.16;4953696;28;97822;-87
2021/04/17 09:49:45;;;;;;;6.45;5.60;;;;;;;9.26;29.47;101778.72;4970957;28;99923;-85
2021/04/17 09:52:17;;;;;;;4.28;3.58;;;;;;;9.31;29.51;101778.88;4971600;28;99109;-83
2021/04/17 09:55:05;;;;;;;3.60;3.13;;;;;;;9.36;29.42;101783.53;4972885;28;97841;-83
2021/04/17 09:57:37;;;;;;;5.82;3.00;;;;;;;9.46;29.44;101776.88;4958272;28;97055;-83
2021/04/17 10:00:06;;;;;;;4.85;4.05;;;;;;;9.49;29.15;101783.25;4944851;28;100221;-83
2021/04/17 10:02:40;;;;;;;3.45;3.15;;;;;;;9.55;29.05;101779.94;4955015;28;98253;-82
2021/04/17 10:05:12;;;;;;;6.60;3.40;;;;;;;9.60;29.12;101786.34;4961235;28;97323;-83
2021/04/17 10:07:41;;;;;;;3.38;3.17;;;;;;;9.65;28.97;101783.03;4960069;28;97461;-83
2021/04/17 10:10:11;;;;;;;23.30;13.27;;;;;;;9.69;28.81;101782.31;4968538;28;97621;-84
2021/04/17 10:12:51;;;;;;;6.88;5.57;;;;;;;9.70;28.70;101778.81;4963559;28;99650;-84
2021/04/17 10:15:39;;;;;;;4.38;3.97;;;;;;;9.62;28.84;101774.94;4965470;28;98126;-84
2021/04/17 10:18:12;;;;;;;3.42;3.13;;;;;;;9.63;28.51;101774.09;4991281;28;98224;-83
2021/04/17 10:20:44;;;;;;;5.53;3.30;;;;;;;9.66;28.74;101770.66;4978327;28;97834;-83
2021/04/17 10:23:13;;;;;;;5.57;3.55;;;;;;;9.71;28.69;101775.31;4974552;28;97713;-83
2021/04/17 10:25:41;;;;;;;3.35;3.05;;;;;;;9.75;28.66;101771.94;4967976;28;97709;-82
2021/04/17 10:28:13;;;;;;;3.85;3.40;;;;;;;9.78;28.53;101777.38;4972867;28;98292;-83
2021/04/17 10:30:43;;;;;;;8.77;6.45;;;;;;;9.77;28.67;101778.19;4956896;28;99186;-84
2021/04/17 10:33:17;;;;;;;18.05;11.07;;;;;;;9.82;28.56;101773.09;4973520;28;100804;-84
2021/04/17 10:35:45;;;;;;;5.63;4.18;;;;;;;9.84;28.58;101774.06;4956006;28;97354;-83
2021/04/17 10:38:23;;;;;;;4.07;3.67;;;;;;;9.87;28.80;101776.81;4975719;28;97864;-84
2021/04/17 10:40:50;;;;;;;4.47;3.50;;;;;;;9.84;28.56;101768.72;4974264;28;98200;-84
2021/04/17 10:43:21;;;;;;;3.97;3.58;;;;;;;9.76;28.41;101772.81;4975267;28;98604;-86
2021/04/17 10:45:53;;;;;;;3.38;3.17;;;;;;;9.74;28.71;101778.09;4973059;28;97302;-84
2021/04/17 10:48:24;;;;;;;3.90;3.67;;;;;;;9.75;28.70;101769.28;4970089;28;98014;-83
2021/04/17 10:51:01;;;;;;;69.28;28.75;;;;;;;9.80;28.55;101767.72;4975807;28;100500;-82
2021/04/17 10:53:30;;;;;;;13.73;8.50;;;;;;;9.89;28.41;101762.75;4972358;28;99272;-85
2021/04/17 10:55:59;;;;;;;4.28;3.75;;;;;;;9.96;28.47;101762.16;4970984;28;98603;-83
2021/04/17 10:58:28;;;;;;;10.15;7.68;;;;;;;10.03;28.34;101763.28;4974853;28;98997;-83
2021/04/17 11:01:08;;;;;;;8.25;6.03;;;;;;;10.11;28.40;101768.06;4975107;28;97786;-84
2021/04/17 11:03:42;;;;;;;5.85;4.38;;;;;;;10.21;28.31;101754.25;4970515;28;101594;-85
2021/04/17 11:06:14;;;;;;;3.75;3.45;;;;;;;10.29;28.20;101751.88;4957206;28;96989;-83
2021/04/17 11:08:42;;;;;;;4.70;4.07;;;;;;;10.41;28.16;101751.44;4980479;28;96863;-88
2021/04/17 11:11:41;;;;;;;4.97;3.63;;;;;;;10.48;27.90;101748.19;4977400;28;97967;-85
2021/04/17 11:14:20;;;;;;;4.15;3.70;;;;;;;10.56;28.09;101752.03;4943035;28;99254;-89
2021/04/17 11:16:50;;;;;;;7.85;4.65;;;;;;;10.60;27.93;101748.63;4920132;28;97405;-83
2021/04/17 11:19:30;;;;;;;4.78;4.38;;;;;;;10.61;27.85;101751.34;4980725;28;98103;-83
2021/04/17 11:22:08;;;;;;;18.77;12.85;;;;;;;10.66;27.88;101754.19;4963983;28;99336;-82
2021/04/17 11:24:37;;;;;;;13.32;9.13;;;;;;;10.72;27.96;101746.44;4980490;28;99455;-83
2021/04/17 11:27:07;;;;;;;25.13;16.55;;;;;;;10.76;27.93;101745.66;4962189;28;96704;-82
2021/04/17 11:29:35;;;;;;;7.13;6.00;;;;;;;10.78;27.92;101749.28;4958180;28;97257;-82
2021/04/17 11:32:03;;;;;;;5.55;3.90;;;;;;;10.81;27.87;101746.75;4949057;28;102471;-82
2021/04/17 11:34:31;;;;;;;4.20;3.90;;;;;;;10.84;27.93;101750.44;4956211;28;99748;-82
2021/04/17 11:36:58;;;;;;;5.10;3.70;;;;;;;10.88;28.02;101747.03;4970558;28;97504;-82
2021/04/17 11:39:25;;;;;;;4.35;3.95;;;;;;;10.82;28.05;101740.56;4956741;28;98718;-81
2021/04/17 11:41:53;;;;;;;5.00;3.35;;;;;;;10.80;27.79;101736.94;4973422;28;99936;-84
2021/04/17 11:44:20;;;;;;;4.45;4.05;;;;;;;10.86;27.94;101742.50;4970240;28;98085;-82
2021/04/17 11:46:48;;;;;;;4.35;3.80;;;;;;;10.90;27.85;101737.31;4969111;28;97854;-83
2021/04/17 11:49:15;;;;;;;8.27;4.45;;;;;;;10.92;27.82;101738.28;4973592;28;97906;-83
2021/04/17 11:51:43;;;;;;;4.05;3.65;;;;;;;11.03;27.82;101744.00;4968670;28;98005;-82